METAR Data
IDs: Format: Raw Decoded Include TAF

Data at: 1306 UTC 07 Oct 2022

METAR for:KJWY (Midlothian/Mid-Way R, TX, US)
Text:KJWY 071255Z AUTO 00000KT 10SM CLR 16/12 A3023 RMK AO2 T01600121
Temperature: 16.0°C ( 61°F)
Dewpoint: 12.1°C ( 54°F) [RH = 78%]
Pressure (altimeter):30.23 inches Hg (1023.8 mb)
Winds:calm
Visibility:10 or more sm (16+ km)
Ceiling:at least 12,000 feet AGL
Clouds:sky clear below 12,000 feet AGL
QC Flag:automated observation with no human augmentation
Text:KJWY 071235Z AUTO 00000KT 10SM CLR 16/12 A3023 RMK AO2 T01600122
Temperature: 16.0°C ( 61°F)
Dewpoint: 12.2°C ( 54°F) [RH = 78%]
Pressure (altimeter):30.23 inches Hg (1023.8 mb)
Winds:calm
Visibility:10 or more sm (16+ km)
Ceiling:at least 12,000 feet AGL
Clouds:sky clear below 12,000 feet AGL
QC Flag:automated observation with no human augmentation
Text:KJWY 071215Z AUTO 00000KT 10SM CLR 16/13 A3022 RMK AO2 T01610129
Temperature: 16.1°C ( 61°F)
Dewpoint: 12.9°C ( 55°F) [RH = 81%]
Pressure (altimeter):30.22 inches Hg (1023.5 mb)
Winds:calm
Visibility:10 or more sm (16+ km)
Ceiling:at least 12,000 feet AGL
Clouds:sky clear below 12,000 feet AGL
QC Flag:automated observation with no human augmentation
Text:KJWY 071155Z AUTO 00000KT 10SM SCT110 16/13 A3022 RMK AO2 T01620127 10195 20160
Temperature: 16.2°C ( 61°F)
Dewpoint: 12.7°C ( 55°F) [RH = 80%]
Pressure (altimeter):30.22 inches Hg (1023.5 mb)
Winds:calm
Visibility:10 or more sm (16+ km)
Ceiling:at least 12,000 feet AGL
Clouds: scattered clouds at 11000 feet AGL
QC Flag:automated observation with no human augmentation
Text:KJWY 071135Z AUTO 00000KT 10SM BKN110 16/12 A3021 RMK AO2 T01620122
Temperature: 16.2°C ( 61°F)
Dewpoint: 12.2°C ( 54°F) [RH = 77%]
Pressure (altimeter):30.21 inches Hg (1023.1 mb)
Winds:calm
Visibility:10 or more sm (16+ km)
Ceiling:11000 feet AGL
Clouds: broken clouds at 11000 feet AGL
QC Flag:automated observation with no human augmentation
Text:KJWY 071115Z AUTO 00000KT 10SM BKN110 17/12 A3020 RMK AO2 T01670120
Temperature: 16.7°C ( 62°F)
Dewpoint: 12.0°C ( 54°F) [RH = 74%]
Pressure (altimeter):30.20 inches Hg (1022.8 mb)
Winds:calm
Visibility:10 or more sm (16+ km)
Ceiling:11000 feet AGL
Clouds: broken clouds at 11000 feet AGL
QC Flag:automated observation with no human augmentation
Text:KJWY 071055Z AUTO 00000KT 10SM BKN110 17/12 A3020 RMK AO2 T01700116
Temperature: 17.0°C ( 63°F)
Dewpoint: 11.6°C ( 53°F) [RH = 70%]
Pressure (altimeter):30.20 inches Hg (1022.8 mb)
Winds:calm
Visibility:10 or more sm (16+ km)
Ceiling:11000 feet AGL
Clouds: broken clouds at 11000 feet AGL
QC Flag:automated observation with no human augmentation
Text:KJWY 071035Z AUTO 00000KT 10SM SCT110 16/12 A3019 RMK AO2 T01600119
Temperature: 16.0°C ( 61°F)
Dewpoint: 11.9°C ( 53°F) [RH = 77%]
Pressure (altimeter):30.19 inches Hg (1022.4 mb)
Winds:calm
Visibility:10 or more sm (16+ km)
Ceiling:at least 12,000 feet AGL
Clouds: scattered clouds at 11000 feet AGL
QC Flag:automated observation with no human augmentation
Text:KJWY 071015Z AUTO 00000KT 10SM SCT110 19/12 A3019 RMK AO2 T01860115
Temperature: 18.6°C ( 65°F)
Dewpoint: 11.5°C ( 53°F) [RH = 63%]
Pressure (altimeter):30.19 inches Hg (1022.4 mb)
Winds:calm
Visibility:10 or more sm (16+ km)
Ceiling:at least 12,000 feet AGL
Clouds: scattered clouds at 11000 feet AGL
QC Flag:automated observation with no human augmentation
Text:KJWY 070955Z AUTO 00000KT 10SM BKN110 16/12 A3019 RMK AO2 T01630115
Temperature: 16.3°C ( 61°F)
Dewpoint: 11.5°C ( 53°F) [RH = 73%]
Pressure (altimeter):30.19 inches Hg (1022.4 mb)
Winds:calm
Visibility:10 or more sm (16+ km)
Ceiling:11000 feet AGL
Clouds: broken clouds at 11000 feet AGL
QC Flag:automated observation with no human augmentation
Text:KJWY 070935Z AUTO 00000KT 10SM OVC100 16/11 A3019 RMK AO2 T01640110
Temperature: 16.4°C ( 62°F)
Dewpoint: 11.0°C ( 52°F) [RH = 70%]
Pressure (altimeter):30.19 inches Hg (1022.4 mb)
Winds:calm
Visibility:10 or more sm (16+ km)
Ceiling:10000 feet AGL
Clouds: overcast cloud deck at 10000 feet AGL
QC Flag:automated observation with no human augmentation
Text:KJWY 070915Z AUTO 00000KT 10SM OVC100 17/11 A3019 RMK AO2 T01730110
Temperature: 17.3°C ( 63°F)
Dewpoint: 11.0°C ( 52°F) [RH = 66%]
Pressure (altimeter):30.19 inches Hg (1022.4 mb)
Winds:calm
Visibility:10 or more sm (16+ km)
Ceiling:10000 feet AGL
Clouds: overcast cloud deck at 10000 feet AGL
QC Flag:automated observation with no human augmentation
Text:KJWY 070855Z AUTO 00000KT 10SM OVC100 19/11 A3019 RMK AO2 T01900107
Temperature: 19.0°C ( 66°F)
Dewpoint: 10.7°C ( 51°F) [RH = 59%]
Pressure (altimeter):30.19 inches Hg (1022.4 mb)
Winds:calm
Visibility:10 or more sm (16+ km)
Ceiling:10000 feet AGL
Clouds: overcast cloud deck at 10000 feet AGL
QC Flag:automated observation with no human augmentation
Text:KJWY 070835Z AUTO 00000KT 10SM BKN110 19/11 A3019 RMK AO2 T01900105
Temperature: 19.0°C ( 66°F)
Dewpoint: 10.5°C ( 51°F) [RH = 58%]
Pressure (altimeter):30.19 inches Hg (1022.4 mb)
Winds:calm
Visibility:10 or more sm (16+ km)
Ceiling:11000 feet AGL
Clouds: broken clouds at 11000 feet AGL
QC Flag:automated observation with no human augmentation
Text:KJWY 070815Z AUTO 00000KT 10SM BKN110 19/11 A3018 RMK AO2 T01850105
Temperature: 18.5°C ( 65°F)
Dewpoint: 10.5°C ( 51°F) [RH = 60%]
Pressure (altimeter):30.18 inches Hg (1022.1 mb)
Winds:calm
Visibility:10 or more sm (16+ km)
Ceiling:11000 feet AGL
Clouds: broken clouds at 11000 feet AGL
QC Flag:automated observation with no human augmentation
Text:KJWY 070755Z AUTO 35006KT 10SM BKN110 19/11 A3018 RMK AO2 T01860108
Temperature: 18.6°C ( 65°F)
Dewpoint: 10.8°C ( 51°F) [RH = 60%]
Pressure (altimeter):30.18 inches Hg (1022.1 mb)
Winds:from the N (350 degrees) at 7 MPH (6 knots; 3.1 m/s)
Visibility:10 or more sm (16+ km)
Ceiling:11000 feet AGL
Clouds: broken clouds at 11000 feet AGL
QC Flag:automated observation with no human augmentation
Text:KJWY 070735Z AUTO 00000KT 10SM OVC110 19/11 A3018 RMK AO2 T01870105
Temperature: 18.7°C ( 66°F)
Dewpoint: 10.5°C ( 51°F) [RH = 59%]
Pressure (altimeter):30.18 inches Hg (1022.1 mb)
Winds:calm
Visibility:10 or more sm (16+ km)
Ceiling:11000 feet AGL
Clouds: overcast cloud deck at 11000 feet AGL
QC Flag:automated observation with no human augmentation
Text:KJWY 070715Z AUTO 00000KT 10SM OVC110 18/11 A3018 RMK AO2 T01840106
Temperature: 18.4°C ( 65°F)
Dewpoint: 10.6°C ( 51°F) [RH = 60%]
Pressure (altimeter):30.18 inches Hg (1022.1 mb)
Winds:calm
Visibility:10 or more sm (16+ km)
Ceiling:11000 feet AGL
Clouds: overcast cloud deck at 11000 feet AGL
QC Flag:automated observation with no human augmentation
Text:KJWY 070655Z AUTO 00000KT 10SM OVC110 18/11 A3018 RMK AO2 T01820106
Temperature: 18.2°C ( 65°F)
Dewpoint: 10.6°C ( 51°F) [RH = 61%]
Pressure (altimeter):30.18 inches Hg (1022.1 mb)
Winds:calm
Visibility:10 or more sm (16+ km)
Ceiling:11000 feet AGL
Clouds: overcast cloud deck at 11000 feet AGL
QC Flag:automated observation with no human augmentation
Text:KJWY 070635Z AUTO 00000KT 10SM BKN110 19/11 A3018 RMK AO2 T01850109
Temperature: 18.5°C ( 65°F)
Dewpoint: 10.9°C ( 52°F) [RH = 61%]
Pressure (altimeter):30.18 inches Hg (1022.1 mb)
Winds:calm
Visibility:10 or more sm (16+ km)
Ceiling:11000 feet AGL
Clouds: broken clouds at 11000 feet AGL
QC Flag:automated observation with no human augmentation
Text:KJWY 070615Z AUTO 00000KT 10SM SCT110 18/11 A3018 RMK AO2 T01820110
Temperature: 18.2°C ( 65°F)
Dewpoint: 11.0°C ( 52°F) [RH = 63%]
Pressure (altimeter):30.18 inches Hg (1022.1 mb)
Winds:calm
Visibility:10 or more sm (16+ km)
Ceiling:at least 12,000 feet AGL
Clouds: scattered clouds at 11000 feet AGL
QC Flag:automated observation with no human augmentation
Text:KJWY 070555Z AUTO 00000KT 10SM BKN110 19/11 A3018 RMK AO2 T01880110 10271 20186 403160141
Temperature: 18.8°C ( 66°F)
Dewpoint: 11.0°C ( 52°F) [RH = 60%]
Pressure (altimeter):30.18 inches Hg (1022.1 mb)
Winds:calm
Visibility:10 or more sm (16+ km)
Ceiling:11000 feet AGL
Clouds: broken clouds at 11000 feet AGL
QC Flag:automated observation with no human augmentation
Text:KJWY 070535Z AUTO 00000KT 10SM BKN100 19/11 A3019 RMK AO2 T01900112
Temperature: 19.0°C ( 66°F)
Dewpoint: 11.2°C ( 52°F) [RH = 61%]
Pressure (altimeter):30.19 inches Hg (1022.4 mb)
Winds:calm
Visibility:10 or more sm (16+ km)
Ceiling:10000 feet AGL
Clouds: broken clouds at 10000 feet AGL
QC Flag:automated observation with no human augmentation
Text:KJWY 070515Z AUTO 00000KT 10SM BKN110 19/11 A3019 RMK AO2 T01900113
Temperature: 19.0°C ( 66°F)
Dewpoint: 11.3°C ( 52°F) [RH = 61%]
Pressure (altimeter):30.19 inches Hg (1022.4 mb)
Winds:calm
Visibility:10 or more sm (16+ km)
Ceiling:11000 feet AGL
Clouds: broken clouds at 11000 feet AGL
QC Flag:automated observation with no human augmentation
Text:KJWY 070455Z AUTO 00000KT 10SM BKN100 20/12 A3019 RMK AO2 T01960116
Temperature: 19.6°C ( 67°F)
Dewpoint: 11.6°C ( 53°F) [RH = 60%]
Pressure (altimeter):30.19 inches Hg (1022.4 mb)
Winds:calm
Visibility:10 or more sm (16+ km)
Ceiling:10000 feet AGL
Clouds: broken clouds at 10000 feet AGL
QC Flag:automated observation with no human augmentation
Text:KJWY 070435Z AUTO 00000KT 10SM OVC100 20/12 A3018 RMK AO2 T01980118
Temperature: 19.8°C ( 68°F)
Dewpoint: 11.8°C ( 53°F) [RH = 60%]
Pressure (altimeter):30.18 inches Hg (1022.1 mb)
Winds:calm
Visibility:10 or more sm (16+ km)
Ceiling:10000 feet AGL
Clouds: overcast cloud deck at 10000 feet AGL
QC Flag:automated observation with no human augmentation
Text:KJWY 070415Z AUTO 00000KT 10SM OVC110 20/12 A3018 RMK AO2 T02030119
Temperature: 20.3°C ( 69°F)
Dewpoint: 11.9°C ( 53°F) [RH = 58%]
Pressure (altimeter):30.18 inches Hg (1022.1 mb)
Winds:calm
Visibility:10 or more sm (16+ km)
Ceiling:11000 feet AGL
Clouds: overcast cloud deck at 11000 feet AGL
QC Flag:automated observation with no human augmentation
Text:KJWY 070355Z AUTO 00000KT 10SM BKN110 20/12 A3018 RMK AO2 T01990120
Temperature: 19.9°C ( 68°F)
Dewpoint: 12.0°C ( 54°F) [RH = 60%]
Pressure (altimeter):30.18 inches Hg (1022.1 mb)
Winds:calm
Visibility:10 or more sm (16+ km)
Ceiling:11000 feet AGL
Clouds: broken clouds at 11000 feet AGL
QC Flag:automated observation with no human augmentation
Text:KJWY 070335Z AUTO 00000KT 10SM BKN110 20/12 A3018 RMK AO2 T01970120
Temperature: 19.7°C ( 67°F)
Dewpoint: 12.0°C ( 54°F) [RH = 61%]
Pressure (altimeter):30.18 inches Hg (1022.1 mb)
Winds:calm
Visibility:10 or more sm (16+ km)
Ceiling:11000 feet AGL
Clouds: broken clouds at 11000 feet AGL
QC Flag:automated observation with no human augmentation
Text:KJWY 070315Z AUTO 00000KT 10SM SCT100 20/12 A3018 RMK AO2 T02010122
Temperature: 20.1°C ( 68°F)
Dewpoint: 12.2°C ( 54°F) [RH = 60%]
Pressure (altimeter):30.18 inches Hg (1022.1 mb)
Winds:calm
Visibility:10 or more sm (16+ km)
Ceiling:at least 12,000 feet AGL
Clouds: scattered clouds at 10000 feet AGL
QC Flag:automated observation with no human augmentation
Text:KJWY 070255Z AUTO 00000KT 10SM CLR 21/13 A3017 RMK AO2 T02100127
Temperature: 21.0°C ( 70°F)
Dewpoint: 12.7°C ( 55°F) [RH = 59%]
Pressure (altimeter):30.17 inches Hg (1021.8 mb)
Winds:calm
Visibility:10 or more sm (16+ km)
Ceiling:at least 12,000 feet AGL
Clouds:sky clear below 12,000 feet AGL
QC Flag:automated observation with no human augmentation
Text:KJWY 070235Z AUTO 00000KT 10SM CLR 21/13 A3017 RMK AO2 T02110127
Temperature: 21.1°C ( 70°F)
Dewpoint: 12.7°C ( 55°F) [RH = 59%]
Pressure (altimeter):30.17 inches Hg (1021.8 mb)
Winds:calm
Visibility:10 or more sm (16+ km)
Ceiling:at least 12,000 feet AGL
Clouds:sky clear below 12,000 feet AGL
QC Flag:automated observation with no human augmentation
Text:KJWY 070215Z AUTO 00000KT 10SM CLR 21/13 A3016 RMK AO2 T02120126
Temperature: 21.2°C ( 70°F)
Dewpoint: 12.6°C ( 55°F) [RH = 58%]
Pressure (altimeter):30.16 inches Hg (1021.4 mb)
Winds:calm
Visibility:10 or more sm (16+ km)
Ceiling:at least 12,000 feet AGL
Clouds:sky clear below 12,000 feet AGL
QC Flag:automated observation with no human augmentation
Text:KJWY 070155Z AUTO 00000KT 10SM CLR 22/11 A3016 RMK AO2 T02200112
Temperature: 22.0°C ( 72°F)
Dewpoint: 11.2°C ( 52°F) [RH = 50%]
Pressure (altimeter):30.16 inches Hg (1021.4 mb)
Winds:calm
Visibility:10 or more sm (16+ km)
Ceiling:at least 12,000 feet AGL
Clouds:sky clear below 12,000 feet AGL
QC Flag:automated observation with no human augmentation
Text:KJWY 070135Z AUTO 00000KT 10SM CLR 22/11 A3015 RMK AO2 T02230110
Temperature: 22.3°C ( 72°F)
Dewpoint: 11.0°C ( 52°F) [RH = 49%]
Pressure (altimeter):30.15 inches Hg (1021.1 mb)
Winds:calm
Visibility:10 or more sm (16+ km)
Ceiling:at least 12,000 feet AGL
Clouds:sky clear below 12,000 feet AGL
QC Flag:automated observation with no human augmentation
Text:KJWY 070115Z AUTO 00000KT 10SM CLR 23/11 A3015 RMK AO2 T02260107
Temperature: 22.6°C ( 73°F)
Dewpoint: 10.7°C ( 51°F) [RH = 47%]
Pressure (altimeter):30.15 inches Hg (1021.1 mb)
Winds:calm
Visibility:10 or more sm (16+ km)
Ceiling:at least 12,000 feet AGL
Clouds:sky clear below 12,000 feet AGL
QC Flag:automated observation with no human augmentation
Text:KJWY 070055Z AUTO 00000KT 10SM CLR 23/11 A3015 RMK AO2 T02270112
Temperature: 22.7°C ( 73°F)
Dewpoint: 11.2°C ( 52°F) [RH = 48%]
Pressure (altimeter):30.15 inches Hg (1021.1 mb)
Winds:calm
Visibility:10 or more sm (16+ km)
Ceiling:at least 12,000 feet AGL
Clouds:sky clear below 12,000 feet AGL
QC Flag:automated observation with no human augmentation
Text:KJWY 070035Z AUTO 00000KT 10SM CLR 24/11 A3015 RMK AO2 T02410110
Temperature: 24.1°C ( 75°F)
Dewpoint: 11.0°C ( 52°F) [RH = 44%]
Pressure (altimeter):30.15 inches Hg (1021.1 mb)
Winds:calm
Visibility:10 or more sm (16+ km)
Ceiling:at least 12,000 feet AGL
Clouds:sky clear below 12,000 feet AGL
QC Flag:automated observation with no human augmentation
Text:KJWY 070015Z AUTO 00000KT 10SM CLR 26/11 A3014 RMK AO2 T02580110
Temperature: 25.8°C ( 78°F)
Dewpoint: 11.0°C ( 52°F) [RH = 40%]
Pressure (altimeter):30.14 inches Hg (1020.7 mb)
Winds:calm
Visibility:10 or more sm (16+ km)
Ceiling:at least 12,000 feet AGL
Clouds:sky clear below 12,000 feet AGL
QC Flag:automated observation with no human augmentation
Text:KJWY 062355Z AUTO 00000KT 10SM CLR 27/11 A3014 RMK AO2 T02730110 10316 20273
Temperature: 27.3°C ( 81°F)
Dewpoint: 11.0°C ( 52°F) [RH = 36%]
Pressure (altimeter):30.14 inches Hg (1020.7 mb)
Winds:calm
Visibility:10 or more sm (16+ km)
Ceiling:at least 12,000 feet AGL
Clouds:sky clear below 12,000 feet AGL
QC Flag:automated observation with no human augmentation
Text:KJWY 062335Z AUTO 00000KT 10SM CLR 29/11 A3013 RMK AO2 T02890105
Temperature: 28.9°C ( 84°F)
Dewpoint: 10.5°C ( 51°F) [RH = 32%]
Pressure (altimeter):30.13 inches Hg (1020.4 mb)
Winds:calm
Visibility:10 or more sm (16+ km)
Ceiling:at least 12,000 feet AGL
Clouds:sky clear below 12,000 feet AGL
QC Flag:automated observation with no human augmentation
Text:KJWY 062315Z AUTO 06003KT 10SM CLR 30/10 A3013 RMK AO2 T02960103
Temperature: 29.6°C ( 85°F)
Dewpoint: 10.3°C ( 51°F) [RH = 30%]
Pressure (altimeter):30.13 inches Hg (1020.4 mb)
Winds:from the ENE (60 degrees) at 3 MPH (3 knots; 1.5 m/s)
Visibility:10 or more sm (16+ km)
Ceiling:at least 12,000 feet AGL
Clouds:sky clear below 12,000 feet AGL
QC Flag:automated observation with no human augmentation
Text:KJWY 062255Z AUTO 05004KT 10SM CLR 30/10 A3013 RMK AO2 T03000104
Temperature: 30.0°C ( 86°F)
Dewpoint: 10.4°C ( 51°F) [RH = 30%]
Pressure (altimeter):30.13 inches Hg (1020.4 mb)
Winds:from the NE (50 degrees) at 5 MPH (4 knots; 2.1 m/s)
Visibility:10 or more sm (16+ km)
Ceiling:at least 12,000 feet AGL
Clouds:sky clear below 12,000 feet AGL
QC Flag:automated observation with no human augmentation
Text:KJWY 062235Z AUTO 00000KT 10SM CLR 31/11 A3012 RMK AO2 T03050106
Temperature: 30.5°C ( 87°F)
Dewpoint: 10.6°C ( 51°F) [RH = 29%]
Pressure (altimeter):30.12 inches Hg (1020.1 mb)
Winds:calm
Visibility:10 or more sm (16+ km)
Ceiling:at least 12,000 feet AGL
Clouds:sky clear below 12,000 feet AGL
QC Flag:automated observation with no human augmentation
Text:KJWY 062215Z AUTO 01003KT 10SM CLR 31/10 A3013 RMK AO2 T03060104
Temperature: 30.6°C ( 87°F)
Dewpoint: 10.4°C ( 51°F) [RH = 29%]
Pressure (altimeter):30.13 inches Hg (1020.4 mb)
Winds:from the N (10 degrees) at 3 MPH (3 knots; 1.5 m/s)
Visibility:10 or more sm (16+ km)
Ceiling:at least 12,000 feet AGL
Clouds:sky clear below 12,000 feet AGL
QC Flag:automated observation with no human augmentation
Text:KJWY 062155Z AUTO 00000KT 10SM CLR 31/10 A3013 RMK AO2 T03080100
Temperature: 30.8°C ( 87°F)
Dewpoint: 10.0°C ( 50°F) [RH = 28%]
Pressure (altimeter):30.13 inches Hg (1020.4 mb)
Winds:calm
Visibility:10 or more sm (16+ km)
Ceiling:at least 12,000 feet AGL
Clouds:sky clear below 12,000 feet AGL
QC Flag:automated observation with no human augmentation
Text:KJWY 062135Z AUTO 00000KT 10SM CLR 31/10 A3013 RMK AO2 T03080101
Temperature: 30.8°C ( 87°F)
Dewpoint: 10.1°C ( 50°F) [RH = 28%]
Pressure (altimeter):30.13 inches Hg (1020.4 mb)
Winds:calm
Visibility:10 or more sm (16+ km)
Ceiling:at least 12,000 feet AGL
Clouds:sky clear below 12,000 feet AGL
QC Flag:automated observation with no human augmentation
Text:KJWY 062115Z AUTO 33003KT 10SM CLR 31/10 A3013 RMK AO2 T03100101
Temperature: 31.0°C ( 88°F)
Dewpoint: 10.1°C ( 50°F) [RH = 28%]
Pressure (altimeter):30.13 inches Hg (1020.4 mb)
Winds:from the NNW (330 degrees) at 3 MPH (3 knots; 1.5 m/s)
Visibility:10 or more sm (16+ km)
Ceiling:at least 12,000 feet AGL
Clouds:sky clear below 12,000 feet AGL
QC Flag:automated observation with no human augmentation
Text:KJWY 062055Z AUTO 00000KT 10SM CLR 31/10 A3013 RMK AO2 T03130102
Temperature: 31.3°C ( 88°F)
Dewpoint: 10.2°C ( 50°F) [RH = 27%]
Pressure (altimeter):30.13 inches Hg (1020.4 mb)
Winds:calm
Visibility:10 or more sm (16+ km)
Ceiling:at least 12,000 feet AGL
Clouds:sky clear below 12,000 feet AGL
QC Flag:automated observation with no human augmentation
Text:KJWY 062035Z AUTO 09004KT 10SM CLR 31/11 A3013 RMK AO2 T03130107
Temperature: 31.3°C ( 88°F)
Dewpoint: 10.7°C ( 51°F) [RH = 28%]
Pressure (altimeter):30.13 inches Hg (1020.4 mb)
Winds:from the E (90 degrees) at 5 MPH (4 knots; 2.1 m/s)
Visibility:10 or more sm (16+ km)
Ceiling:at least 12,000 feet AGL
Clouds:sky clear below 12,000 feet AGL
QC Flag:automated observation with no human augmentation
Text:KJWY 062015Z AUTO 00000KT 10SM CLR 31/11 A3014 RMK AO2 T03070105
Temperature: 30.7°C ( 87°F)
Dewpoint: 10.5°C ( 51°F) [RH = 29%]
Pressure (altimeter):30.14 inches Hg (1020.7 mb)
Winds:calm
Visibility:10 or more sm (16+ km)
Ceiling:at least 12,000 feet AGL
Clouds:sky clear below 12,000 feet AGL
QC Flag:automated observation with no human augmentation
Text:KJWY 061955Z AUTO 03004KT 10SM CLR 32/11 A3014 RMK AO2 T03150109
Temperature: 31.5°C ( 89°F)
Dewpoint: 10.9°C ( 52°F) [RH = 28%]
Pressure (altimeter):30.14 inches Hg (1020.7 mb)
Winds:from the NNE (30 degrees) at 5 MPH (4 knots; 2.1 m/s)
Visibility:10 or more sm (16+ km)
Ceiling:at least 12,000 feet AGL
Clouds:sky clear below 12,000 feet AGL
QC Flag:automated observation with no human augmentation
Text:KJWY 061935Z AUTO 31003KT 10SM CLR 31/10 A3015 RMK AO2 T03070103
Temperature: 30.7°C ( 87°F)
Dewpoint: 10.3°C ( 51°F) [RH = 28%]
Pressure (altimeter):30.15 inches Hg (1021.1 mb)
Winds:from the NW (310 degrees) at 3 MPH (3 knots; 1.5 m/s)
Visibility:10 or more sm (16+ km)
Ceiling:at least 12,000 feet AGL
Clouds:sky clear below 12,000 feet AGL
QC Flag:automated observation with no human augmentation
Text:KJWY 061915Z AUTO 04003KT 10SM CLR 31/10 A3016 RMK AO2 T03080104
Temperature: 30.8°C ( 87°F)
Dewpoint: 10.4°C ( 51°F) [RH = 28%]
Pressure (altimeter):30.16 inches Hg (1021.4 mb)
Winds:from the NE (40 degrees) at 3 MPH (3 knots; 1.5 m/s)
Visibility:10 or more sm (16+ km)
Ceiling:at least 12,000 feet AGL
Clouds:sky clear below 12,000 feet AGL
QC Flag:automated observation with no human augmentation
Text:KJWY 061855Z AUTO 00000KT 10SM CLR 30/11 A3017 RMK AO2 T03040105
Temperature: 30.4°C ( 87°F)
Dewpoint: 10.5°C ( 51°F) [RH = 29%]
Pressure (altimeter):30.17 inches Hg (1021.8 mb)
Winds:calm
Visibility:10 or more sm (16+ km)
Ceiling:at least 12,000 feet AGL
Clouds:sky clear below 12,000 feet AGL
QC Flag:automated observation with no human augmentation
Text:KJWY 061835Z AUTO 03004KT 10SM SCT110 30/11 A3018 RMK AO2 T03040109
Temperature: 30.4°C ( 87°F)
Dewpoint: 10.9°C ( 52°F) [RH = 30%]
Pressure (altimeter):30.18 inches Hg (1022.1 mb)
Winds:from the NNE (30 degrees) at 5 MPH (4 knots; 2.1 m/s)
Visibility:10 or more sm (16+ km)
Ceiling:at least 12,000 feet AGL
Clouds: scattered clouds at 11000 feet AGL
QC Flag:automated observation with no human augmentation
Text:KJWY 061815Z AUTO 33004KT 10SM CLR 30/11 A3018 RMK AO2 T02990107
Temperature: 29.9°C ( 86°F)
Dewpoint: 10.7°C ( 51°F) [RH = 31%]
Pressure (altimeter):30.18 inches Hg (1022.1 mb)
Winds:from the NNW (330 degrees) at 5 MPH (4 knots; 2.1 m/s)
Visibility:10 or more sm (16+ km)
Ceiling:at least 12,000 feet AGL
Clouds:sky clear below 12,000 feet AGL
QC Flag:automated observation with no human augmentation
Text:KJWY 061755Z AUTO 00000KT 10SM SCT110 30/10 A3019 RMK AO2 T03000104 10301 20141
Temperature: 30.0°C ( 86°F)
Dewpoint: 10.4°C ( 51°F) [RH = 30%]
Pressure (altimeter):30.19 inches Hg (1022.4 mb)
Winds:calm
Visibility:10 or more sm (16+ km)
Ceiling:at least 12,000 feet AGL
Clouds: scattered clouds at 11000 feet AGL
QC Flag:automated observation with no human augmentation
Text:KJWY 061735Z AUTO 00000KT 10SM BKN110 30/11 A3020 RMK AO2 T02960106
Temperature: 29.6°C ( 85°F)
Dewpoint: 10.6°C ( 51°F) [RH = 31%]
Pressure (altimeter):30.20 inches Hg (1022.8 mb)
Winds:calm
Visibility:10 or more sm (16+ km)
Ceiling:11000 feet AGL
Clouds: broken clouds at 11000 feet AGL
QC Flag:automated observation with no human augmentation
Text:KJWY 061715Z AUTO 00000KT 10SM BKN110 29/11 A3020 RMK AO2 T02920110
Temperature: 29.2°C ( 85°F)
Dewpoint: 11.0°C ( 52°F) [RH = 32%]
Pressure (altimeter):30.20 inches Hg (1022.8 mb)
Winds:calm
Visibility:10 or more sm (16+ km)
Ceiling:11000 feet AGL
Clouds: broken clouds at 11000 feet AGL
QC Flag:automated observation with no human augmentation
Text:KJWY 061655Z AUTO 00000KT 10SM SCT110 28/11 A3021 RMK AO2 T02830107
Temperature: 28.3°C ( 83°F)
Dewpoint: 10.7°C ( 51°F) [RH = 33%]
Pressure (altimeter):30.21 inches Hg (1023.1 mb)
Winds:calm
Visibility:10 or more sm (16+ km)
Ceiling:at least 12,000 feet AGL
Clouds: scattered clouds at 11000 feet AGL
QC Flag:automated observation with no human augmentation
Text:KJWY 061635Z AUTO 33003KT 10SM SCT110 28/11 A3021 RMK AO2 T02830106
Temperature: 28.3°C ( 83°F)
Dewpoint: 10.6°C ( 51°F) [RH = 33%]
Pressure (altimeter):30.21 inches Hg (1023.1 mb)
Winds:from the NNW (330 degrees) at 3 MPH (3 knots; 1.5 m/s)
Visibility:10 or more sm (16+ km)
Ceiling:at least 12,000 feet AGL
Clouds: scattered clouds at 11000 feet AGL
QC Flag:automated observation with no human augmentation
Text:KJWY 061615Z AUTO 00000KT 10SM CLR 27/11 A3021 RMK AO2 T02720109
Temperature: 27.2°C ( 81°F)
Dewpoint: 10.9°C ( 52°F) [RH = 36%]
Pressure (altimeter):30.21 inches Hg (1023.1 mb)
Winds:calm
Visibility:10 or more sm (16+ km)
Ceiling:at least 12,000 feet AGL
Clouds:sky clear below 12,000 feet AGL
QC Flag:automated observation with no human augmentation
Text:KJWY 061555Z AUTO 00000KT 10SM CLR 27/11 A3021 RMK AO2 T02670114
Temperature: 26.7°C ( 80°F)
Dewpoint: 11.4°C ( 53°F) [RH = 38%]
Pressure (altimeter):30.21 inches Hg (1023.1 mb)
Winds:calm
Visibility:10 or more sm (16+ km)
Ceiling:at least 12,000 feet AGL
Clouds:sky clear below 12,000 feet AGL
QC Flag:automated observation with no human augmentation
Text:KJWY 061535Z AUTO 00000KT 10SM CLR 26/12 A3021 RMK AO2 T02590116
Temperature: 25.9°C ( 79°F)
Dewpoint: 11.6°C ( 53°F) [RH = 41%]
Pressure (altimeter):30.21 inches Hg (1023.1 mb)
Winds:calm
Visibility:10 or more sm (16+ km)
Ceiling:at least 12,000 feet AGL
Clouds:sky clear below 12,000 feet AGL
QC Flag:automated observation with no human augmentation
Text:KJWY 061515Z AUTO 31003KT 10SM CLR 25/12 A3021 RMK AO2 T02480117
Temperature: 24.8°C ( 77°F)
Dewpoint: 11.7°C ( 53°F) [RH = 44%]
Pressure (altimeter):30.21 inches Hg (1023.1 mb)
Winds:from the NW (310 degrees) at 3 MPH (3 knots; 1.5 m/s)
Visibility:10 or more sm (16+ km)
Ceiling:at least 12,000 feet AGL
Clouds:sky clear below 12,000 feet AGL
QC Flag:automated observation with no human augmentation
Text:KJWY 061455Z AUTO 28004KT 10SM CLR 24/12 A3021 RMK AO2 T02390117
Temperature: 23.9°C ( 75°F)
Dewpoint: 11.7°C ( 53°F) [RH = 46%]
Pressure (altimeter):30.21 inches Hg (1023.1 mb)
Winds:from the W (280 degrees) at 5 MPH (4 knots; 2.1 m/s)
Visibility:10 or more sm (16+ km)
Ceiling:at least 12,000 feet AGL
Clouds:sky clear below 12,000 feet AGL
QC Flag:automated observation with no human augmentation
Text:KJWY 061435Z AUTO 31003KT 10SM CLR 23/12 A3020 RMK AO2 T02250117
Temperature: 22.5°C ( 72°F)
Dewpoint: 11.7°C ( 53°F) [RH = 50%]
Pressure (altimeter):30.20 inches Hg (1022.8 mb)
Winds:from the NW (310 degrees) at 3 MPH (3 knots; 1.5 m/s)
Visibility:10 or more sm (16+ km)
Ceiling:at least 12,000 feet AGL
Clouds:sky clear below 12,000 feet AGL
QC Flag:automated observation with no human augmentation
Text:KJWY 061415Z AUTO 00000KT 10SM CLR 21/12 A3020 RMK AO2 T02100115
Temperature: 21.0°C ( 70°F)
Dewpoint: 11.5°C ( 53°F) [RH = 55%]
Pressure (altimeter):30.20 inches Hg (1022.8 mb)
Winds:calm
Visibility:10 or more sm (16+ km)
Ceiling:at least 12,000 feet AGL
Clouds:sky clear below 12,000 feet AGL
QC Flag:automated observation with no human augmentation
Text:KJWY 061355Z AUTO 00000KT 10SM CLR 20/12 A3019 RMK AO2 T01960116
Temperature: 19.6°C ( 67°F)
Dewpoint: 11.6°C ( 53°F) [RH = 60%]
Pressure (altimeter):30.19 inches Hg (1022.4 mb)
Winds:calm
Visibility:10 or more sm (16+ km)
Ceiling:at least 12,000 feet AGL
Clouds:sky clear below 12,000 feet AGL
QC Flag:automated observation with no human augmentation
Text:KJWY 061335Z AUTO 00000KT 7SM CLR 17/12 A3018 RMK AO2 T01700123
Temperature: 17.0°C ( 63°F)
Dewpoint: 12.3°C ( 54°F) [RH = 74%]
Pressure (altimeter):30.18 inches Hg (1022.1 mb)
Winds:calm
Visibility: 7 sm ( 11 km)
Ceiling:at least 12,000 feet AGL
Clouds:sky clear below 12,000 feet AGL
QC Flag:automated observation with no human augmentation
Text:KJWY 061315Z AUTO 00000KT 10SM CLR 15/10 A3018 RMK AO2 T01520104
Temperature: 15.2°C ( 59°F)
Dewpoint: 10.4°C ( 51°F) [RH = 73%]
Pressure (altimeter):30.18 inches Hg (1022.1 mb)
Winds:calm
Visibility:10 or more sm (16+ km)
Ceiling:at least 12,000 feet AGL
Clouds:sky clear below 12,000 feet AGL
QC Flag:automated observation with no human augmentation
Text:KJWY 061255Z AUTO 00000KT 10SM CLR 14/10 A3017 RMK AO2 T01410100
Temperature: 14.1°C ( 57°F)
Dewpoint: 10.0°C ( 50°F) [RH = 76%]
Pressure (altimeter):30.17 inches Hg (1021.8 mb)
Winds:calm
Visibility:10 or more sm (16+ km)
Ceiling:at least 12,000 feet AGL
Clouds:sky clear below 12,000 feet AGL
QC Flag:automated observation with no human augmentation
Text:KJWY 061235Z AUTO 00000KT 10SM CLR 15/10 A3017 RMK AO2 T01450099
Temperature: 14.5°C ( 58°F)
Dewpoint: 9.9°C ( 50°F) [RH = 74%]
Pressure (altimeter):30.17 inches Hg (1021.8 mb)
Winds:calm
Visibility:10 or more sm (16+ km)
Ceiling:at least 12,000 feet AGL
Clouds:sky clear below 12,000 feet AGL
QC Flag:automated observation with no human augmentation
Text:KJWY 061215Z AUTO 00000KT 10SM CLR 14/10 A3016 RMK AO2 T01440100
Temperature: 14.4°C ( 58°F)
Dewpoint: 10.0°C ( 50°F) [RH = 75%]
Pressure (altimeter):30.16 inches Hg (1021.4 mb)
Winds:calm
Visibility:10 or more sm (16+ km)
Ceiling:at least 12,000 feet AGL
Clouds:sky clear below 12,000 feet AGL
QC Flag:automated observation with no human augmentation
Text:KJWY 061155Z AUTO 00000KT 10SM CLR 15/10 A3016 RMK AO2 T01490098 10171 20147
Temperature: 14.9°C ( 59°F)
Dewpoint: 9.8°C ( 50°F) [RH = 72%]
Pressure (altimeter):30.16 inches Hg (1021.4 mb)
Winds:calm
Visibility:10 or more sm (16+ km)
Ceiling:at least 12,000 feet AGL
Clouds:sky clear below 12,000 feet AGL
QC Flag:automated observation with no human augmentation
Text:KJWY 061135Z AUTO 00000KT 10SM CLR 15/10 A3015 RMK AO2 T01530100
Temperature: 15.3°C ( 60°F)
Dewpoint: 10.0°C ( 50°F) [RH = 71%]
Pressure (altimeter):30.15 inches Hg (1021.1 mb)
Winds:calm
Visibility:10 or more sm (16+ km)
Ceiling:at least 12,000 feet AGL
Clouds:sky clear below 12,000 feet AGL
QC Flag:automated observation with no human augmentation
Text:KJWY 061115Z AUTO 00000KT 10SM CLR 16/10 A3015 RMK AO2 T01570100
Temperature: 15.7°C ( 60°F)
Dewpoint: 10.0°C ( 50°F) [RH = 69%]
Pressure (altimeter):30.15 inches Hg (1021.1 mb)
Winds:calm
Visibility:10 or more sm (16+ km)
Ceiling:at least 12,000 feet AGL
Clouds:sky clear below 12,000 feet AGL
QC Flag:automated observation with no human augmentation
Text:KJWY 061055Z AUTO 00000KT 10SM CLR 15/10 A3014 RMK AO2 T01540100
Temperature: 15.4°C ( 60°F)
Dewpoint: 10.0°C ( 50°F) [RH = 70%]
Pressure (altimeter):30.14 inches Hg (1020.7 mb)
Winds:calm
Visibility:10 or more sm (16+ km)
Ceiling:at least 12,000 feet AGL
Clouds:sky clear below 12,000 feet AGL
QC Flag:automated observation with no human augmentation
Text:KJWY 061035Z AUTO 00000KT 10SM CLR 16/10 A3014 RMK AO2 T01590100
Temperature: 15.9°C ( 61°F)
Dewpoint: 10.0°C ( 50°F) [RH = 68%]
Pressure (altimeter):30.14 inches Hg (1020.7 mb)
Winds:calm
Visibility:10 or more sm (16+ km)
Ceiling:at least 12,000 feet AGL
Clouds:sky clear below 12,000 feet AGL
QC Flag:automated observation with no human augmentation
Text:KJWY 061015Z AUTO 00000KT 10SM CLR 16/10 A3014 RMK AO2 T01620100
Temperature: 16.2°C ( 61°F)
Dewpoint: 10.0°C ( 50°F) [RH = 67%]
Pressure (altimeter):30.14 inches Hg (1020.7 mb)
Winds:calm
Visibility:10 or more sm (16+ km)
Ceiling:at least 12,000 feet AGL
Clouds:sky clear below 12,000 feet AGL
QC Flag:automated observation with no human augmentation
Text:KJWY 060955Z AUTO 00000KT 10SM CLR 16/10 A3013 RMK AO2 T01560103
Temperature: 15.6°C ( 60°F)
Dewpoint: 10.3°C ( 51°F) [RH = 71%]
Pressure (altimeter):30.13 inches Hg (1020.4 mb)
Winds:calm
Visibility:10 or more sm (16+ km)
Ceiling:at least 12,000 feet AGL
Clouds:sky clear below 12,000 feet AGL
QC Flag:automated observation with no human augmentation
Text:KJWY 060935Z AUTO 00000KT 10SM CLR 16/11 A3013 RMK AO2 T01570105
Temperature: 15.7°C ( 60°F)
Dewpoint: 10.5°C ( 51°F) [RH = 71%]
Pressure (altimeter):30.13 inches Hg (1020.4 mb)
Winds:calm
Visibility:10 or more sm (16+ km)
Ceiling:at least 12,000 feet AGL
Clouds:sky clear below 12,000 feet AGL
QC Flag:automated observation with no human augmentation
Text:KJWY 060915Z AUTO 00000KT 10SM CLR 16/11 A3013 RMK AO2 T01610107
Temperature: 16.1°C ( 61°F)
Dewpoint: 10.7°C ( 51°F) [RH = 70%]
Pressure (altimeter):30.13 inches Hg (1020.4 mb)
Winds:calm
Visibility:10 or more sm (16+ km)
Ceiling:at least 12,000 feet AGL
Clouds:sky clear below 12,000 feet AGL
QC Flag:automated observation with no human augmentation
Text:KJWY 060855Z AUTO 00000KT 10SM CLR 16/11 A3013 RMK AO2 T01550110
Temperature: 15.5°C ( 60°F)
Dewpoint: 11.0°C ( 52°F) [RH = 75%]
Pressure (altimeter):30.13 inches Hg (1020.4 mb)
Winds:calm
Visibility:10 or more sm (16+ km)
Ceiling:at least 12,000 feet AGL
Clouds:sky clear below 12,000 feet AGL
QC Flag:automated observation with no human augmentation
Text:KJWY 060835Z AUTO 00000KT 10SM CLR 16/11 A3014 RMK AO2 T01550107
Temperature: 15.5°C ( 60°F)
Dewpoint: 10.7°C ( 51°F) [RH = 73%]
Pressure (altimeter):30.14 inches Hg (1020.7 mb)
Winds:calm
Visibility:10 or more sm (16+ km)
Ceiling:at least 12,000 feet AGL
Clouds:sky clear below 12,000 feet AGL
QC Flag:automated observation with no human augmentation
Text:KJWY 060815Z AUTO 00000KT 10SM CLR 16/11 A3014 RMK AO2 T01560105
Temperature: 15.6°C ( 60°F)
Dewpoint: 10.5°C ( 51°F) [RH = 72%]
Pressure (altimeter):30.14 inches Hg (1020.7 mb)
Winds:calm
Visibility:10 or more sm (16+ km)
Ceiling:at least 12,000 feet AGL
Clouds:sky clear below 12,000 feet AGL
QC Flag:automated observation with no human augmentation
Text:KJWY 060755Z AUTO 00000KT 10SM SCT110 16/11 A3014 RMK AO2 T01600105
Temperature: 16.0°C ( 61°F)
Dewpoint: 10.5°C ( 51°F) [RH = 70%]
Pressure (altimeter):30.14 inches Hg (1020.7 mb)
Winds:calm
Visibility:10 or more sm (16+ km)
Ceiling:at least 12,000 feet AGL
Clouds: scattered clouds at 11000 feet AGL
QC Flag:automated observation with no human augmentation
Text:KJWY 060735Z AUTO 00000KT 10SM BKN110 16/11 A3014 RMK AO2 T01550106
Temperature: 15.5°C ( 60°F)
Dewpoint: 10.6°C ( 51°F) [RH = 73%]
Pressure (altimeter):30.14 inches Hg (1020.7 mb)
Winds:calm
Visibility:10 or more sm (16+ km)
Ceiling:11000 feet AGL
Clouds: broken clouds at 11000 feet AGL
QC Flag:automated observation with no human augmentation
Text:KJWY 060715Z AUTO 00000KT 10SM SCT120 15/10 A3014 RMK AO2 T01500102
Temperature: 15.0°C ( 59°F)
Dewpoint: 10.2°C ( 50°F) [RH = 73%]
Pressure (altimeter):30.14 inches Hg (1020.7 mb)
Winds:calm
Visibility:10 or more sm (16+ km)
Ceiling:at least 12,000 feet AGL
Clouds: scattered clouds at 12000 feet AGL
QC Flag:automated observation with no human augmentation
Text:KJWY 060655Z AUTO 00000KT 10SM BKN110 15/10 A3014 RMK AO2 T01480100
Temperature: 14.8°C ( 59°F)
Dewpoint: 10.0°C ( 50°F) [RH = 73%]
Pressure (altimeter):30.14 inches Hg (1020.7 mb)
Winds:calm
Visibility:10 or more sm (16+ km)
Ceiling:11000 feet AGL
Clouds: broken clouds at 11000 feet AGL
QC Flag:automated observation with no human augmentation
Text:KJWY 060635Z AUTO 00000KT 10SM BKN110 17/10 A3014 RMK AO2 T01670100
Temperature: 16.7°C ( 62°F)
Dewpoint: 10.0°C ( 50°F) [RH = 65%]
Pressure (altimeter):30.14 inches Hg (1020.7 mb)
Winds:calm
Visibility:10 or more sm (16+ km)
Ceiling:11000 feet AGL
Clouds: broken clouds at 11000 feet AGL
QC Flag:automated observation with no human augmentation
Text:KJWY 060615Z AUTO 00000KT 10SM SCT110 17/10 A3014 RMK AO2 T01680099
Temperature: 16.8°C ( 62°F)
Dewpoint: 9.9°C ( 50°F) [RH = 64%]
Pressure (altimeter):30.14 inches Hg (1020.7 mb)
Winds:calm
Visibility:10 or more sm (16+ km)
Ceiling:at least 12,000 feet AGL
Clouds: scattered clouds at 11000 feet AGL
QC Flag:automated observation with no human augmentation
Text:KJWY 060555Z AUTO 00000KT 10SM SCT110 16/10 A3014 RMK AO2 T01620099 10263 20162 403080126
Temperature: 16.2°C ( 61°F)
Dewpoint: 9.9°C ( 50°F) [RH = 66%]
Pressure (altimeter):30.14 inches Hg (1020.7 mb)
Winds:calm
Visibility:10 or more sm (16+ km)
Ceiling:at least 12,000 feet AGL
Clouds: scattered clouds at 11000 feet AGL
QC Flag:automated observation with no human augmentation
Text:KJWY 060535Z AUTO 00000KT 10SM BKN110 17/10 A3014 RMK AO2 T01690097
Temperature: 16.9°C ( 62°F)
Dewpoint: 9.7°C ( 49°F) [RH = 63%]
Pressure (altimeter):30.14 inches Hg (1020.7 mb)
Winds:calm
Visibility:10 or more sm (16+ km)
Ceiling:11000 feet AGL
Clouds: broken clouds at 11000 feet AGL
QC Flag:automated observation with no human augmentation
Text:KJWY 060515Z AUTO 00000KT 10SM SCT110 17/10 A3014 RMK AO2 T01720096
Temperature: 17.2°C ( 63°F)
Dewpoint: 9.6°C ( 49°F) [RH = 61%]
Pressure (altimeter):30.14 inches Hg (1020.7 mb)
Winds:calm
Visibility:10 or more sm (16+ km)
Ceiling:at least 12,000 feet AGL
Clouds: scattered clouds at 11000 feet AGL
QC Flag:automated observation with no human augmentation
Text:KJWY 060455Z AUTO 00000KT 10SM SCT110 18/10 A3014 RMK AO2 T01830096
Temperature: 18.3°C ( 65°F)
Dewpoint: 9.6°C ( 49°F) [RH = 57%]
Pressure (altimeter):30.14 inches Hg (1020.7 mb)
Winds:calm
Visibility:10 or more sm (16+ km)
Ceiling:at least 12,000 feet AGL
Clouds: scattered clouds at 11000 feet AGL
QC Flag:automated observation with no human augmentation
Text:KJWY 060435Z AUTO 00000KT 10SM BKN100 18/10 A3014 RMK AO2 T01840098
Temperature: 18.4°C ( 65°F)
Dewpoint: 9.8°C ( 50°F) [RH = 57%]
Pressure (altimeter):30.14 inches Hg (1020.7 mb)
Winds:calm
Visibility:10 or more sm (16+ km)
Ceiling:10000 feet AGL
Clouds: broken clouds at 10000 feet AGL
QC Flag:automated observation with no human augmentation
Text:KJWY 060415Z AUTO 00000KT 10SM OVC110 19/10 A3014 RMK AO2 T01870097
Temperature: 18.7°C ( 66°F)
Dewpoint: 9.7°C ( 49°F) [RH = 56%]
Pressure (altimeter):30.14 inches Hg (1020.7 mb)
Winds:calm
Visibility:10 or more sm (16+ km)
Ceiling:11000 feet AGL
Clouds: overcast cloud deck at 11000 feet AGL
QC Flag:automated observation with no human augmentation
Text:KJWY 060355Z AUTO 00000KT 10SM BKN110 18/10 A3014 RMK AO2 T01780099
Temperature: 17.8°C ( 64°F)
Dewpoint: 9.9°C ( 50°F) [RH = 60%]
Pressure (altimeter):30.14 inches Hg (1020.7 mb)
Winds:calm
Visibility:10 or more sm (16+ km)
Ceiling:11000 feet AGL
Clouds: broken clouds at 11000 feet AGL
QC Flag:automated observation with no human augmentation
Text:KJWY 060335Z AUTO 00000KT 10SM SCT110 18/10 A3013 RMK AO2 T01810102
Temperature: 18.1°C ( 65°F)
Dewpoint: 10.2°C ( 50°F) [RH = 60%]
Pressure (altimeter):30.13 inches Hg (1020.4 mb)
Winds:calm
Visibility:10 or more sm (16+ km)
Ceiling:at least 12,000 feet AGL
Clouds: scattered clouds at 11000 feet AGL
QC Flag:automated observation with no human augmentation
Text:KJWY 060315Z AUTO 00000KT 10SM SCT120 19/10 A3013 RMK AO2 T01910100
Temperature: 19.1°C ( 66°F)
Dewpoint: 10.0°C ( 50°F) [RH = 56%]
Pressure (altimeter):30.13 inches Hg (1020.4 mb)
Winds:calm
Visibility:10 or more sm (16+ km)
Ceiling:at least 12,000 feet AGL
Clouds: scattered clouds at 12000 feet AGL
QC Flag:automated observation with no human augmentation
Text:KJWY 060255Z AUTO 00000KT 10SM CLR 20/10 A3012 RMK AO2 T02000099
Temperature: 20.0°C ( 68°F)
Dewpoint: 9.9°C ( 50°F) [RH = 52%]
Pressure (altimeter):30.12 inches Hg (1020.1 mb)
Winds:calm
Visibility:10 or more sm (16+ km)
Ceiling:at least 12,000 feet AGL
Clouds:sky clear below 12,000 feet AGL
QC Flag:automated observation with no human augmentation
Text:KJWY 060235Z AUTO 00000KT 10SM CLR 20/10 A3012 RMK AO2 T01980099
Temperature: 19.8°C ( 68°F)
Dewpoint: 9.9°C ( 50°F) [RH = 53%]
Pressure (altimeter):30.12 inches Hg (1020.1 mb)
Winds:calm
Visibility:10 or more sm (16+ km)
Ceiling:at least 12,000 feet AGL
Clouds:sky clear below 12,000 feet AGL
QC Flag:automated observation with no human augmentation
Text:KJWY 060215Z AUTO 00000KT 10SM CLR 21/10 A3012 RMK AO2 T02090098
Temperature: 20.9°C ( 70°F)
Dewpoint: 9.8°C ( 50°F) [RH = 49%]
Pressure (altimeter):30.12 inches Hg (1020.1 mb)
Winds:calm
Visibility:10 or more sm (16+ km)
Ceiling:at least 12,000 feet AGL
Clouds:sky clear below 12,000 feet AGL
QC Flag:automated observation with no human augmentation
Text:KJWY 060155Z AUTO 00000KT 10SM CLR 21/10 A3012 RMK AO2 T02080097
Temperature: 20.8°C ( 69°F)
Dewpoint: 9.7°C ( 49°F) [RH = 49%]
Pressure (altimeter):30.12 inches Hg (1020.1 mb)
Winds:calm
Visibility:10 or more sm (16+ km)
Ceiling:at least 12,000 feet AGL
Clouds:sky clear below 12,000 feet AGL
QC Flag:automated observation with no human augmentation
Text:KJWY 060135Z AUTO 00000KT 10SM CLR 21/10 A3011 RMK AO2 T02080099
Temperature: 20.8°C ( 69°F)
Dewpoint: 9.9°C ( 50°F) [RH = 50%]
Pressure (altimeter):30.11 inches Hg (1019.7 mb)
Winds:calm
Visibility:10 or more sm (16+ km)
Ceiling:at least 12,000 feet AGL
Clouds:sky clear below 12,000 feet AGL
QC Flag:automated observation with no human augmentation
Text:KJWY 060115Z AUTO 00000KT 10SM CLR 21/10 A3011 RMK AO2 T02130097
Temperature: 21.3°C ( 70°F)
Dewpoint: 9.7°C ( 49°F) [RH = 48%]
Pressure (altimeter):30.11 inches Hg (1019.7 mb)
Winds:calm
Visibility:10 or more sm (16+ km)
Ceiling:at least 12,000 feet AGL
Clouds:sky clear below 12,000 feet AGL
QC Flag:automated observation with no human augmentation